METAR AND TAF INFORMATION
METAR FOR UAUU
ADDS - METARS form results

(0410 UTC 26 August 2019)
Data provider http://aviationweather.gov/metar/data/
 
METAR text: UAUU 260400Z 34007MPS 9999 VCTS BKN043CB 16/12 Q1007 TEMPO 34012MPS RMK QFE740/0987
Conditions at: UAUU (KOSTANAY , KZ) observed 0400 UTC 26 August 2019
Temperature: 16.0°C (61°F)
Dewpoint: 12.0°C (54°F) [RH = 77%]
Pressure (altimeter): 29.73 inches Hg (1007.0 mb)
Winds: from the NNW (340 degrees) at 16 MPH (14 knots; 7.2 m/s)
Visibility: 6 or more miles (10+ km)
Ceiling: 4300 feet AGL
Clouds: broken clouds at 4300 feet AGL
Weather: VCTS  (thunderstorm in vicinity)

METAR text: UAUU 260330Z 34009MPS 9999 BKN040CB 17/12 Q1007 TEMPO 34012MPS RMK QFE740/0987
Conditions at: UAUU (KOSTANAY , KZ) observed 0330 UTC 26 August 2019
Temperature: 17.0°C (63°F)
Dewpoint: 12.0°C (54°F) [RH = 72%]
Pressure (altimeter): 29.73 inches Hg (1007.0 mb)
Winds: from the NNW (340 degrees) at 20 MPH (17 knots; 8.7 m/s)
Visibility: 6 or more miles (10+ km)
Ceiling: 4000 feet AGL
Clouds: broken clouds at 4000 feet AGL
Weather: no significant weather observed at this time

Forecast for: AMD
Text: TAF AMD COR UAUU 260328Z 2604/2612 34008G14MPS 9999 BKN030CB
Forecast period: 0400 to 1200 UTC 26 August 2019
Forecast type: FROM: standard forecast or significant change
Winds: from the NNW (340 degrees) at 18 MPH (16 knots; 8.2 m/s)
gusting to 31 MPH (27 knots; 13.9 m/s)
Visibility: 6 or more miles 10+ km)
Ceiling: 3000 feet AGL
Clouds: broken clouds at 3000 feet AGL
Weather: no significant weather forecast for this period
Text: TEMPO 2608/2612 5000 -SHRA BKN020CB
Forecast period: 0800 to 1200 UTC 26 August 2019
Forecast type: TEMPORARY: The following changes expected for less than half the time period
Visibility: 3 miles (5 km)
Ceiling: 2000 feet AGL
Clouds: broken clouds at 2000 feet AGL
Weather: -SHRA  (light rain showers)

 AIRPORT MAP

 RUNWAY INFORMATION

 AIRPORT FREQUENCIES
Type TWR Name TWR Frequency 129.3 MHZ

 AIRPORT NEAR NAVIGATION AIDS
Type NDB Name Kostanay Frequency 512 KHZ
Type NDB Name Kostanay Frequency 512 KHZ



2018 Air Astana Virtual Airline